createdAt,value
2017-10-31T17:17:38.037Z,57.90
2017-10-31T17:20:06.541Z,60.20
2017-10-31T17:22:34.092Z,60.00
2017-10-31T17:25:04.386Z,61.10
2017-10-31T17:27:31.910Z,61.50
2017-10-31T17:29:59.459Z,63.30
2017-10-31T17:32:28.545Z,63.70
2017-10-31T17:34:56.185Z,64.10
2017-10-31T17:37:24.159Z,64.40
2017-10-31T17:39:51.923Z,64.60
2017-10-31T17:42:19.821Z,64.80
2017-10-31T17:44:47.766Z,64.80
2017-10-31T17:47:15.413Z,64.90
2017-10-31T17:49:44.349Z,64.70
2017-10-31T17:52:11.972Z,64.50
2017-10-31T17:54:40.411Z,64.50
2017-10-31T17:57:08.502Z,64.60
2017-10-31T17:59:37.978Z,65.50
2017-10-31T18:02:05.555Z,64.80
2017-10-31T18:04:33.166Z,64.70
2017-10-31T18:07:00.818Z,65.40
2017-10-31T18:09:28.449Z,64.90
2017-10-31T18:11:56.044Z,65.00
2017-10-31T18:14:23.662Z,65.00
2017-10-31T18:16:51.161Z,65.00
2017-10-31T18:19:18.864Z,65.20
2017-10-31T18:21:46.854Z,65.20
2017-10-31T18:24:15.642Z,65.20
2017-10-31T18:26:46.462Z,65.10
2017-10-31T18:29:14.454Z,65.00
2017-10-31T18:31:44.546Z,65.10
2017-10-31T18:34:13.300Z,65.00
2017-10-31T18:36:41.708Z,65.10
2017-10-31T18:39:09.285Z,65.00
2017-10-31T18:41:37.720Z,65.00
2017-10-31T18:44:05.507Z,65.00
2017-10-31T18:46:33.084Z,65.00
2017-10-31T18:49:00.737Z,65.20
2017-10-31T18:51:28.595Z,65.40
2017-10-31T18:53:56.232Z,65.30
2017-10-31T18:56:23.825Z,65.60
2017-10-31T18:58:51.350Z,65.90
2017-10-31T19:01:19.674Z,66.60
2017-10-31T19:03:47.244Z,66.50
2017-10-31T19:06:15.594Z,67.00
2017-10-31T19:08:43.473Z,66.90
2017-10-31T19:11:11.397Z,67.20
2017-10-31T19:13:39.053Z,67.20
2017-10-31T19:16:07.321Z,67.10
2017-10-31T19:18:34.979Z,66.90
2017-10-31T19:21:03.325Z,67.10
2017-10-31T19:23:30.866Z,67.00
2017-10-31T19:25:58.381Z,67.10
2017-10-31T19:28:25.900Z,66.90
2017-10-31T19:30:53.412Z,67.00
2017-10-31T19:33:21.705Z,67.90
2017-10-31T19:35:49.950Z,68.00
2017-10-31T19:38:17.528Z,68.00
2017-10-31T19:40:45.776Z,68.40
2017-10-31T19:43:13.286Z,68.40
2017-10-31T19:45:40.810Z,68.60
2017-10-31T19:48:08.325Z,68.60
2017-10-31T19:50:36.524Z,68.70
2017-10-31T19:53:04.840Z,68.70
2017-10-31T19:55:32.338Z,68.70
2017-10-31T19:57:59.825Z,68.80
2017-10-31T20:00:27.336Z,68.70
2017-10-31T20:02:54.847Z,68.90
2017-10-31T20:05:22.368Z,68.70
2017-10-31T20:07:50.131Z,68.70
2017-10-31T20:10:17.670Z,68.50
2017-10-31T20:12:45.151Z,68.00
2017-10-31T20:15:12.684Z,67.70
2017-10-31T20:17:40.185Z,67.60
2017-10-31T20:20:07.692Z,67.50
2017-10-31T20:22:36.761Z,67.20
2017-10-31T20:25:05.078Z,66.90
2017-10-31T20:27:32.572Z,66.90
2017-10-31T20:30:01.071Z,66.70
2017-10-31T20:32:29.372Z,66.90
2017-10-31T20:34:57.662Z,66.60
2017-10-31T20:37:26.002Z,66.60
2017-10-31T20:39:53.593Z,66.60
2017-10-31T20:42:21.161Z,66.50
2017-10-31T20:44:48.665Z,66.50
2017-10-31T20:47:16.197Z,66.40
2017-10-31T20:49:43.709Z,66.40
2017-10-31T20:52:12.175Z,66.40
2017-10-31T20:54:39.715Z,66.50
2017-10-31T20:57:07.229Z,66.40
2017-10-31T20:59:35.657Z,66.80
2017-10-31T21:02:03.183Z,66.80
2017-10-31T21:04:30.682Z,66.70
2017-10-31T21:06:58.323Z,66.50
2017-10-31T21:09:25.864Z,66.70
2017-10-31T21:11:53.351Z,66.80
2017-10-31T21:14:20.925Z,66.70
2017-10-31T21:16:48.414Z,66.70
2017-10-31T21:19:16.727Z,67.00
2017-10-31T21:21:44.242Z,67.00
2017-10-31T21:24:11.783Z,67.00
2017-10-31T21:26:39.334Z,66.90
2017-10-31T21:29:07.663Z,66.50
2017-10-31T21:31:35.521Z,66.40
2017-10-31T21:34:03.084Z,66.50
2017-10-31T21:36:31.397Z,66.50
2017-10-31T21:38:58.983Z,66.40
2017-10-31T21:41:27.288Z,66.60
2017-10-31T21:43:54.839Z,66.50
2017-10-31T21:46:22.517Z,66.40
2017-10-31T21:48:50.015Z,66.40
2017-10-31T21:51:17.514Z,66.50
2017-10-31T21:53:45.034Z,66.50
2017-10-31T21:56:13.295Z,66.50
2017-10-31T21:58:41.578Z,66.50
2017-10-31T22:01:09.073Z,66.50
2017-10-31T22:03:36.637Z,66.40
2017-10-31T22:06:04.155Z,66.40
2017-10-31T22:08:31.667Z,66.50
2017-10-31T22:10:59.188Z,66.50
2017-10-31T22:13:26.813Z,66.20
2017-10-31T22:15:57.207Z,66.00
2017-10-31T22:18:25.240Z,66.10
2017-10-31T22:20:52.785Z,66.00
2017-10-31T22:23:20.541Z,65.90
2017-10-31T22:25:48.234Z,65.70
2017-10-31T22:30:48.633Z,65.90
2017-10-31T22:33:16.165Z,65.80
2017-10-31T22:35:48.483Z,65.70
2017-10-31T22:38:18.024Z,65.80
2017-10-31T22:40:46.277Z,65.90
2017-10-31T22:43:13.740Z,65.70
2017-10-31T22:45:44.225Z,65.70
2017-10-31T22:48:12.276Z,65.90
2017-10-31T22:50:40.000Z,65.70
2017-10-31T22:53:08.400Z,65.90
2017-10-31T22:55:35.931Z,65.90
2017-10-31T22:58:03.440Z,65.80
2017-10-31T23:00:30.953Z,65.90
2017-10-31T23:02:58.516Z,66.00
2017-10-31T23:05:26.078Z,65.80
2017-10-31T23:07:53.617Z,65.80
2017-10-31T23:10:22.857Z,65.80
2017-10-31T23:12:50.534Z,65.80
2017-10-31T23:15:18.033Z,65.70
2017-10-31T23:17:45.536Z,65.60
2017-10-31T23:20:13.057Z,65.70
2017-10-31T23:22:42.521Z,65.90
2017-10-31T23:25:10.028Z,65.80
2017-10-31T23:27:40.486Z,65.80
2017-10-31T23:30:08.203Z,65.60
2017-10-31T23:32:36.487Z,64.80
2017-10-31T23:35:04.806Z,63.70
2017-10-31T23:37:32.314Z,63.70
2017-10-31T23:40:00.074Z,63.60
2017-10-31T23:42:28.362Z,64.00
2017-10-31T23:44:56.643Z,64.00
2017-10-31T23:47:24.900Z,64.20
2017-10-31T23:49:53.182Z,64.00
2017-10-31T23:52:21.485Z,64.20
2017-10-31T23:54:49.005Z,64.20
2017-10-31T23:57:16.569Z,64.30
2017-10-31T23:59:44.963Z,64.20
